createdAt,value
2019-04-23T00:02:56.661Z,8.00
2019-04-23T00:05:39.462Z,7.90
2019-04-23T00:07:59.182Z,8.10
2019-04-23T00:10:30.321Z,7.47
2019-04-23T00:12:59.397Z,8.10
2019-04-23T00:15:51.720Z,8.30
2019-04-23T00:18:27.611Z,8.30
2019-04-23T00:20:47.922Z,8.60
2019-04-23T00:23:25.778Z,8.53
2019-04-23T00:28:36.068Z,8.87
2019-04-23T00:31:13.728Z,8.40
2019-04-23T00:33:37.361Z,8.43
2019-04-23T00:36:19.646Z,8.47
2019-04-23T00:38:47.314Z,8.47
2019-04-23T00:41:15.979Z,8.90
2019-04-23T00:43:52.745Z,8.20
2019-04-23T00:46:22.137Z,8.80
2019-04-23T00:51:22.756Z,9.30
2019-04-23T00:53:57.331Z,9.00
2019-04-23T00:59:00.407Z,9.07
2019-04-23T01:01:38.885Z,9.57
2019-04-23T01:04:05.817Z,9.17
2019-04-23T01:06:32.469Z,9.30
2019-04-23T01:09:02.210Z,8.80
2019-04-23T01:11:39.247Z,7.83
2019-04-23T01:14:11.529Z,9.70
2019-04-23T01:16:37.408Z,8.83
2019-04-23T01:19:35.183Z,9.37
2019-04-23T01:21:38.842Z,9.50
2019-04-23T01:24:15.852Z,9.43
2019-04-23T01:30:04.675Z,9.80
2019-04-23T01:32:36.949Z,9.83
2019-04-23T01:35:17.581Z,9.37
2019-04-23T01:37:41.168Z,8.97
2019-04-23T01:40:22.002Z,10.43
2019-04-23T01:53:08.598Z,9.97
2019-04-23T01:55:28.009Z,11.20
2019-04-23T01:58:20.186Z,9.63
2019-04-23T02:00:53.199Z,9.57
2019-04-23T02:03:09.369Z,9.70
2019-04-23T02:08:09.116Z,9.73
2019-04-23T02:13:16.593Z,10.03
2019-04-23T02:15:53.384Z,10.50
2019-04-23T02:18:23.100Z,8.63
2019-04-23T02:20:59.497Z,9.90
2019-04-23T02:23:57.355Z,10.30
2019-04-23T02:26:20.167Z,9.77
2019-04-23T02:29:03.571Z,10.77
2019-04-23T02:34:17.126Z,10.70
2019-04-23T02:36:57.103Z,11.00
2019-04-23T02:42:23.292Z,10.27
2019-04-23T02:44:34.249Z,10.50
2019-04-23T02:47:17.124Z,10.57
2019-04-23T02:49:44.314Z,10.57
2019-04-23T02:57:20.214Z,11.30
2019-04-23T03:02:37.061Z,10.40
2019-04-23T03:04:57.749Z,10.67
2019-04-23T03:23:44.297Z,10.80
2019-04-23T03:26:14.091Z,10.57
2019-04-23T03:32:48.410Z,11.97
2019-04-23T03:37:02.220Z,10.57
2019-04-23T03:38:48.646Z,10.47
2019-04-23T03:44:01.609Z,11.10
2019-04-23T03:48:52.942Z,11.50
2019-04-23T03:51:34.276Z,11.77
2019-04-23T03:54:16.298Z,11.73
2019-04-23T03:56:52.607Z,11.67
2019-04-23T03:59:15.522Z,11.53
2019-04-23T04:09:33.145Z,9.00
2019-04-23T04:11:34.672Z,11.60
2019-04-23T04:32:01.049Z,10.80
2019-04-23T04:39:42.857Z,10.27
2019-04-23T04:42:10.453Z,11.13
2019-04-23T04:49:51.686Z,12.40
2019-04-23T04:54:39.772Z,12.10
2019-04-23T04:57:30.187Z,11.33
2019-04-23T05:05:02.359Z,11.30
2019-04-23T05:07:27.600Z,12.13
2019-04-23T05:10:21.855Z,10.30
2019-04-23T05:15:04.791Z,10.43
2019-04-23T05:20:24.017Z,9.60
2019-04-23T05:23:02.794Z,10.17
2019-04-23T05:25:17.529Z,11.83
2019-04-23T05:27:56.524Z,12.33
2019-04-23T05:30:25.119Z,12.43
2019-04-23T05:32:51.916Z,10.80
2019-04-23T05:35:39.909Z,10.90
2019-04-23T05:38:05.335Z,12.00
2019-04-23T05:40:30.600Z,8.67
2019-04-23T05:45:18.478Z,12.23
2019-04-23T05:47:53.420Z,11.70
2019-04-23T05:50:30.501Z,10.90
2019-04-23T05:52:54.141Z,11.20
2019-04-23T05:55:34.022Z,11.77
2019-04-23T05:57:44.569Z,11.43
2019-04-23T06:00:26.209Z,10.23
2019-04-23T06:02:56.910Z,11.40
2019-04-23T06:07:49.351Z,11.40
2019-04-23T06:10:19.733Z,12.20
2019-04-23T06:12:50.689Z,12.30
2019-04-23T06:15:20.600Z,10.53
2019-04-23T06:17:54.163Z,11.40
2019-04-23T06:20:31.623Z,11.10
2019-04-23T06:22:56.062Z,11.57
2019-04-23T06:27:57.562Z,9.57
2019-04-23T06:30:25.787Z,9.17
2019-04-23T06:32:55.172Z,7.90
2019-04-23T06:35:23.832Z,11.40
2019-04-23T06:38:12.484Z,10.10
2019-04-23T06:40:25.207Z,10.63
2019-04-23T06:43:05.352Z,10.27
2019-04-23T06:45:32.126Z,9.60
2019-04-23T06:48:13.714Z,10.17
2019-04-23T06:50:35.471Z,10.10
2019-04-23T06:52:59.508Z,9.40
2019-04-23T06:55:38.720Z,9.70
2019-04-23T06:58:15.102Z,8.23
2019-04-23T07:00:42.036Z,9.90
2019-04-23T07:03:14.802Z,10.00
2019-04-23T07:06:11.973Z,9.23
2019-04-23T07:08:44.396Z,10.20
2019-04-23T07:11:08.096Z,8.90
2019-04-23T07:13:44.580Z,10.60
2019-04-23T07:15:58.481Z,10.13
2019-04-23T07:18:29.273Z,9.27
2019-04-23T07:21:06.505Z,8.67
2019-04-23T07:23:38.056Z,9.10
2019-04-23T07:26:21.262Z,8.63
2019-04-23T07:28:37.273Z,6.80
2019-04-23T07:31:18.355Z,9.80
2019-04-23T07:33:45.922Z,9.70
2019-04-23T07:36:08.684Z,8.70
2019-04-23T07:38:47.352Z,8.90
2019-04-23T07:41:32.863Z,7.57
2019-04-23T07:44:08.583Z,7.60
2019-04-23T07:46:33.883Z,7.63
2019-04-23T07:48:55.984Z,7.57
2019-04-23T07:51:29.301Z,8.80
2019-04-23T07:54:07.972Z,9.03
2019-04-23T07:56:27.596Z,8.17
2019-04-23T07:59:05.722Z,8.90
2019-04-23T08:01:27.120Z,8.77
2019-04-23T08:04:01.947Z,7.60
2019-04-23T08:06:31.980Z,9.50
2019-04-23T08:09:04.133Z,9.13
2019-04-23T08:18:57.594Z,7.60
2019-04-23T08:21:45.956Z,6.13
2019-04-23T08:24:18.235Z,7.40
2019-04-23T08:26:56.190Z,8.17
2019-04-23T08:29:26.529Z,8.53
2019-04-23T08:32:02.522Z,7.97
2019-04-23T08:34:39.668Z,7.53
2019-04-23T08:37:04.951Z,7.10
2019-04-23T08:39:37.232Z,8.43
2019-04-23T08:42:21.786Z,7.97
2019-04-23T08:44:38.850Z,8.10
2019-04-23T08:49:40.334Z,9.10
2019-04-23T08:57:24.028Z,7.67
2019-04-23T08:59:47.355Z,7.00
2019-04-23T09:03:16.816Z,6.73
2019-04-23T09:04:45.594Z,8.43
2019-04-23T09:09:45.357Z,8.30
2019-04-23T09:12:16.795Z,7.00
2019-04-23T09:14:38.219Z,9.10
2019-04-23T09:17:10.653Z,8.97
2019-04-23T09:19:51.890Z,7.50
2019-04-23T09:22:14.445Z,8.30
2019-04-23T09:24:44.893Z,7.13
2019-04-23T09:27:21.104Z,7.10
2019-04-23T09:29:47.217Z,7.33
2019-04-23T09:32:22.405Z,7.30
2019-04-23T09:37:48.812Z,7.27
2019-04-23T09:40:31.489Z,7.30
2019-04-23T09:45:48.110Z,5.87
2019-04-23T09:48:06.671Z,6.70
2019-04-23T09:50:41.971Z,7.40
2019-04-23T09:58:11.751Z,5.80
2019-04-23T10:03:07.615Z,7.30
2019-04-23T10:05:30.980Z,6.80
2019-04-23T10:08:01.611Z,7.30
2019-04-23T10:10:22.608Z,6.80
2019-04-23T10:12:51.197Z,7.43
2019-04-23T10:15:26.250Z,7.17
2019-04-23T10:17:50.054Z,8.20
2019-04-23T10:20:18.648Z,6.60
2019-04-23T10:22:48.263Z,8.70
2019-04-23T10:25:17.273Z,6.70
2019-04-23T10:27:52.969Z,7.07
2019-04-23T10:30:17.545Z,7.20
2019-04-23T10:32:47.565Z,12.53
2019-04-23T10:35:25.619Z,6.03
2019-04-23T10:37:52.889Z,6.53
2019-04-23T10:40:22.948Z,6.93
2019-04-23T10:42:48.382Z,6.07
2019-04-23T10:45:51.339Z,6.60
2019-04-23T10:54:03.460Z,5.53
2019-04-23T10:56:22.352Z,5.27
2019-04-23T10:58:38.666Z,6.10
2019-04-23T11:01:14.761Z,7.73
2019-04-23T11:03:56.546Z,8.70
2019-04-23T11:06:26.853Z,7.50
2019-04-23T11:08:40.644Z,7.90
2019-04-23T11:11:23.581Z,7.13
2019-04-23T11:14:05.404Z,6.03
2019-04-23T11:16:45.804Z,5.93
2019-04-23T11:21:28.550Z,5.53
2019-04-23T11:24:04.842Z,5.63
2019-04-23T11:26:28.599Z,5.80
2019-04-23T11:28:52.090Z,5.73
2019-04-23T11:34:01.907Z,6.80
2019-04-23T11:36:49.959Z,5.50
2019-04-23T11:41:34.273Z,7.03
2019-04-23T11:43:57.656Z,5.00
2019-04-23T11:46:51.303Z,5.87
2019-04-23T11:49:22.387Z,6.10
2019-04-23T11:56:51.457Z,6.27
2019-04-23T11:59:06.761Z,5.73
2019-04-23T12:01:42.800Z,6.30
2019-04-23T12:04:14.076Z,12.17
2019-04-23T12:06:45.954Z,6.50
2019-04-23T12:09:25.941Z,6.20
2019-04-23T12:27:06.187Z,5.77
2019-04-23T12:34:59.425Z,5.03
2019-04-23T12:40:15.038Z,5.77
2019-04-23T12:45:18.000Z,5.80
2019-04-23T12:57:40.275Z,5.80
2019-04-23T13:00:05.276Z,5.30
2019-04-23T13:02:44.593Z,5.20
2019-04-23T13:05:12.157Z,7.67
2019-04-23T13:10:09.932Z,5.57
2019-04-23T13:12:47.984Z,6.20
2019-04-23T13:15:13.935Z,5.93
2019-04-23T13:25:19.582Z,5.30
2019-04-23T13:28:02.764Z,4.30
2019-04-23T13:30:23.168Z,8.80
2019-04-23T13:32:52.176Z,8.30
2019-04-23T13:37:58.932Z,5.93
2019-04-23T13:40:24.207Z,5.80
2019-04-23T13:42:52.532Z,7.20
2019-04-23T13:45:49.737Z,9.40
2019-04-23T13:48:06.127Z,7.10
2019-04-23T13:53:12.420Z,7.53
2019-04-23T13:55:18.336Z,8.00
2019-04-23T14:00:36.301Z,8.77
2019-04-23T14:02:50.346Z,9.73
2019-04-23T14:05:33.129Z,8.73
2019-04-23T14:08:02.661Z,5.70
2019-04-23T14:10:36.267Z,7.00
2019-04-23T14:13:17.917Z,6.07
2019-04-23T14:15:42.867Z,4.97
2019-04-23T14:18:20.842Z,6.83
2019-04-23T14:20:35.294Z,5.90
2019-04-23T14:23:14.148Z,10.10
2019-04-23T14:25:40.255Z,7.83
2019-04-23T14:33:12.026Z,6.70
2019-04-23T14:35:40.228Z,7.07
2019-04-23T14:40:54.160Z,7.70
2019-04-23T14:45:52.578Z,10.97
2019-04-23T14:50:46.913Z,7.00
2019-04-23T14:55:57.187Z,8.53
2019-04-23T15:01:08.405Z,11.93
2019-04-23T15:03:27.138Z,11.30
2019-04-23T15:06:04.870Z,8.00
2019-04-23T15:11:06.818Z,9.30
2019-04-23T15:13:22.768Z,7.70
2019-04-23T15:16:03.076Z,8.10
2019-04-23T15:18:55.856Z,7.53
2019-04-23T15:24:00.775Z,9.70
2019-04-23T15:28:34.128Z,10.03
2019-04-23T15:34:00.929Z,7.00
2019-04-23T15:36:36.883Z,8.80
2019-04-23T15:39:07.977Z,8.63
2019-04-23T15:43:57.738Z,8.10
2019-04-23T15:46:25.432Z,8.40
2019-04-23T15:49:01.488Z,7.10
2019-04-23T15:53:56.674Z,9.83
2019-04-23T16:01:31.952Z,8.40
2019-04-23T16:03:29.017Z,7.87
2019-04-23T16:05:57.403Z,9.60
2019-04-23T16:11:33.273Z,8.33
2019-04-23T16:14:10.221Z,9.40
2019-04-23T16:16:30.053Z,8.33
2019-04-23T16:19:19.046Z,9.87
2019-04-23T16:24:19.528Z,12.30
2019-04-23T16:32:04.238Z,8.70
2019-04-23T16:34:27.265Z,9.00
2019-04-23T16:36:54.890Z,8.07
2019-04-23T16:39:16.552Z,7.60
2019-04-23T16:41:54.790Z,9.37
2019-04-23T16:44:29.456Z,8.00
2019-04-23T16:49:34.720Z,9.53
2019-04-23T16:51:45.898Z,7.80
2019-04-23T16:54:25.097Z,9.20
2019-04-23T16:59:18.651Z,9.07
2019-04-23T17:02:01.591Z,8.50
2019-04-23T17:06:54.985Z,8.40
2019-04-23T17:09:40.351Z,16.67
2019-04-23T17:11:59.141Z,9.77
2019-04-23T17:14:21.351Z,9.90
2019-04-23T17:16:59.769Z,9.70
2019-04-23T17:19:26.214Z,10.47
2019-04-23T17:21:58.180Z,11.60
2019-04-23T17:26:56.707Z,10.03
2019-04-23T17:31:45.422Z,9.67
2019-04-23T17:34:30.783Z,9.37
2019-04-23T17:37:07.298Z,11.73
2019-04-23T17:39:57.909Z,10.97
2019-04-23T17:42:19.723Z,11.70
2019-04-23T17:55:13.329Z,10.43
2019-04-23T17:57:37.622Z,11.27
2019-04-23T18:02:55.630Z,9.90
2019-04-23T18:12:43.848Z,10.90
2019-04-23T18:15:13.073Z,11.73
2019-04-23T18:17:43.387Z,11.40
2019-04-23T18:20:24.887Z,10.00
2019-04-23T18:23:00.784Z,19.60
2019-04-23T18:25:37.689Z,13.47
2019-04-23T18:28:03.500Z,10.63
2019-04-23T18:30:40.722Z,10.80
2019-04-23T18:35:36.043Z,11.00
2019-04-23T18:40:58.888Z,10.33
2019-04-23T18:46:04.339Z,11.23
2019-04-23T18:56:05.991Z,10.07
2019-04-23T18:58:47.555Z,11.30
2019-04-23T19:01:05.629Z,14.03
2019-04-23T19:03:48.125Z,12.47
2019-04-23T19:06:23.222Z,10.97
2019-04-23T19:11:48.579Z,17.03
2019-04-23T19:14:30.511Z,12.17
2019-04-23T19:16:41.590Z,12.17
2019-04-23T19:19:01.422Z,12.67
2019-04-23T19:21:57.305Z,12.83
2019-04-23T19:24:09.502Z,12.77
2019-04-23T19:31:46.045Z,11.43
2019-04-23T19:36:49.076Z,13.47
2019-04-23T19:39:19.333Z,12.80
2019-04-23T19:41:57.717Z,12.00
2019-04-23T19:44:08.965Z,13.27
2019-04-23T19:49:15.063Z,11.47
2019-04-23T19:54:16.698Z,11.43
2019-04-23T19:59:15.624Z,13.43
2019-04-23T20:01:53.333Z,12.33
2019-04-23T20:04:04.135Z,12.40
2019-04-23T20:09:30.273Z,12.37
2019-04-23T20:11:50.552Z,12.07
2019-04-23T20:14:09.558Z,12.73
2019-04-23T20:17:21.377Z,11.17
2019-04-23T20:19:23.758Z,13.90
2019-04-23T20:22:06.194Z,11.90
2019-04-23T20:26:59.865Z,11.13
2019-04-23T20:36:53.258Z,11.90
2019-04-23T20:39:33.029Z,12.27
2019-04-23T20:42:10.893Z,12.03
2019-04-23T20:44:39.562Z,13.00
2019-04-23T20:49:42.369Z,13.00
2019-04-23T20:52:05.018Z,12.30
2019-04-23T20:54:42.947Z,11.97
2019-04-23T20:57:31.526Z,12.30
2019-04-23T20:59:57.252Z,12.30
2019-04-23T21:05:19.555Z,13.00
2019-04-23T21:12:50.737Z,12.43
2019-04-23T21:15:10.209Z,12.70
2019-04-23T21:17:46.845Z,12.63
2019-04-23T21:20:14.451Z,12.87
2019-04-23T21:22:29.815Z,12.10
2019-04-23T21:25:06.094Z,13.30
2019-04-23T21:27:57.544Z,13.10
2019-04-23T21:30:03.535Z,12.60
2019-04-23T21:32:41.003Z,13.30
2019-04-23T21:37:49.982Z,13.60
2019-04-23T21:40:42.455Z,12.90
2019-04-23T21:43:02.785Z,13.77
2019-04-23T21:45:31.899Z,14.03
2019-04-23T21:48:02.427Z,12.73
2019-04-23T21:50:39.464Z,12.47
2019-04-23T21:52:56.393Z,13.30
2019-04-23T21:55:35.249Z,12.90
2019-04-23T22:00:34.673Z,13.83
2019-04-23T22:03:02.431Z,13.50
2019-04-23T22:05:37.815Z,12.93
2019-04-23T22:10:26.274Z,12.60
2019-04-23T22:15:34.560Z,13.50
2019-04-23T22:23:05.140Z,12.70
2019-04-23T22:25:36.837Z,12.03
2019-04-23T22:30:30.679Z,12.27
2019-04-23T22:35:30.166Z,12.93
2019-04-23T22:38:06.750Z,12.70
2019-04-23T22:40:25.917Z,11.60
2019-04-23T22:50:31.115Z,13.13
2019-04-23T22:53:02.026Z,12.50
2019-04-23T22:55:34.870Z,13.00
2019-04-23T22:58:04.726Z,13.63
2019-04-23T23:00:36.080Z,13.30
2019-04-23T23:03:24.340Z,13.00
2019-04-23T23:08:24.093Z,13.77
2019-04-23T23:13:33.154Z,12.33
2019-04-23T23:16:06.857Z,12.03
2019-04-23T23:21:04.122Z,13.57
2019-04-23T23:23:21.518Z,12.27
2019-04-23T23:26:02.428Z,11.00
2019-04-23T23:28:28.709Z,12.50
2019-04-23T23:31:04.051Z,11.10
2019-04-23T23:35:58.954Z,11.53
2019-04-23T23:38:36.693Z,11.17
2019-04-23T23:41:12.696Z,12.03
2019-04-23T23:48:31.381Z,10.53
2019-04-23T23:51:17.107Z,11.13
2019-04-23T23:53:39.758Z,10.43
2019-04-23T23:56:04.802Z,10.37
2019-04-23T23:58:55.297Z,10.57
